createdAt,value
2016-11-18T00:00:22.480Z,0
2016-11-18T00:01:22.430Z,0
2016-11-18T00:02:22.435Z,0
2016-11-18T00:03:22.392Z,0
2016-11-18T00:04:22.411Z,0
2016-11-18T00:05:22.702Z,0
2016-11-18T00:06:22.378Z,0
2016-11-18T00:07:22.348Z,0
2016-11-18T00:08:22.329Z,0
2016-11-18T00:09:22.324Z,0
2016-11-18T00:10:22.305Z,0
2016-11-18T00:11:22.285Z,0
2016-11-18T00:12:22.275Z,0
2016-11-18T00:13:22.275Z,0
2016-11-18T00:14:22.243Z,0
2016-11-18T00:15:22.249Z,0
2016-11-18T00:16:22.209Z,0
2016-11-18T00:17:22.209Z,0
2016-11-18T00:18:22.185Z,0
2016-11-18T00:19:22.196Z,0
2016-11-18T00:20:22.175Z,0
2016-11-18T00:21:22.145Z,0
2016-11-18T00:22:22.426Z,0
2016-11-18T00:23:22.104Z,0
2016-11-18T00:24:22.134Z,0
2016-11-18T00:25:22.090Z,0
2016-11-18T00:26:22.088Z,0
2016-11-18T00:27:22.063Z,0
2016-11-18T00:28:22.035Z,0
2016-11-18T00:29:22.012Z,0
2016-11-18T00:30:22.021Z,0
2016-11-18T00:31:22.011Z,0
2016-11-18T00:32:21.996Z,0
2016-11-18T00:33:21.967Z,0
2016-11-18T00:34:21.939Z,0
2016-11-18T00:35:21.936Z,0
2016-11-18T00:36:21.927Z,0
2016-11-18T00:37:21.930Z,0
2016-11-18T00:38:21.895Z,0
2016-11-18T00:39:21.900Z,0
2016-11-18T00:40:21.908Z,0
2016-11-18T00:41:21.883Z,0
2016-11-18T00:42:21.861Z,0
2016-11-18T00:43:21.831Z,0
2016-11-18T00:44:21.795Z,0
2016-11-18T00:45:21.815Z,0
2016-11-18T00:46:21.776Z,0
2016-11-18T00:47:22.054Z,0
2016-11-18T00:48:21.742Z,0
2016-11-18T00:49:21.717Z,0
2016-11-18T00:50:21.722Z,0
2016-11-18T00:51:21.685Z,0
2016-11-18T00:52:21.690Z,0
2016-11-18T00:53:21.663Z,0
2016-11-18T00:54:21.682Z,0
2016-11-18T00:55:21.639Z,0
2016-11-18T00:56:21.650Z,0
2016-11-18T00:57:21.606Z,0
2016-11-18T00:58:21.591Z,0
2016-11-18T00:59:21.601Z,0
2016-11-18T01:00:21.578Z,0
2016-11-18T01:01:21.561Z,0
2016-11-18T01:02:21.550Z,0
2016-11-18T01:03:21.520Z,0
2016-11-18T01:04:21.513Z,0
2016-11-18T01:05:21.497Z,0
2016-11-18T01:06:21.467Z,0
2016-11-18T01:07:21.481Z,0
2016-11-18T01:08:21.459Z,0
2016-11-18T01:09:21.430Z,0
2016-11-18T01:10:21.424Z,0
2016-11-18T01:11:21.409Z,0
2016-11-18T01:12:21.389Z,0
2016-11-18T01:13:21.379Z,0
2016-11-18T01:14:21.332Z,0
2016-11-18T01:15:21.375Z,0
2016-11-18T01:16:21.333Z,0
2016-11-18T01:17:21.315Z,0
2016-11-18T01:18:21.283Z,0
2016-11-18T01:19:21.281Z,0
2016-11-18T01:20:21.274Z,0
2016-11-18T01:21:21.270Z,0
2016-11-18T01:22:21.250Z,0
2016-11-18T01:23:21.203Z,0
2016-11-18T01:24:21.211Z,0
2016-11-18T01:25:21.212Z,0
2016-11-18T01:26:21.174Z,0
2016-11-18T01:27:21.148Z,0
2016-11-18T01:28:21.131Z,0
2016-11-18T01:29:21.124Z,0
2016-11-18T01:30:21.100Z,0
2016-11-18T01:31:21.093Z,0
2016-11-18T01:32:21.073Z,0
2016-11-18T01:33:21.104Z,0
2016-11-18T01:34:21.040Z,0
2016-11-18T01:35:21.059Z,0
2016-11-18T01:36:21.008Z,0
2016-11-18T01:37:21.026Z,0
2016-11-18T01:38:20.981Z,0
2016-11-18T01:39:20.981Z,0
2016-11-18T01:40:20.968Z,0
2016-11-18T01:41:20.935Z,0
2016-11-18T01:42:20.930Z,0
2016-11-18T01:43:20.903Z,0
2016-11-18T01:44:20.908Z,0
2016-11-18T01:45:20.889Z,0
2016-11-18T01:46:20.859Z,0
2016-11-18T01:47:20.849Z,0
2016-11-18T01:48:21.149Z,0
2016-11-18T01:49:20.831Z,0
2016-11-18T01:50:20.815Z,0
2016-11-18T01:51:20.842Z,0
2016-11-18T01:52:20.759Z,0
2016-11-18T01:53:20.755Z,0
2016-11-18T01:54:20.743Z,0
2016-11-18T01:55:20.748Z,0
2016-11-18T01:56:20.717Z,0
2016-11-18T01:57:20.710Z,0
2016-11-18T01:58:20.675Z,0
2016-11-18T01:59:20.656Z,0
2016-11-18T02:00:20.670Z,0
2016-11-18T02:01:20.618Z,0
2016-11-18T02:02:20.609Z,0
2016-11-18T02:03:20.630Z,0
2016-11-18T02:04:20.596Z,0
2016-11-18T02:05:20.578Z,0
2016-11-18T02:06:20.576Z,0
2016-11-18T02:07:20.544Z,0
2016-11-18T02:08:20.537Z,0
2016-11-18T02:09:20.502Z,0
2016-11-18T02:10:20.504Z,0
2016-11-18T02:11:20.492Z,0
2016-11-18T02:12:20.455Z,0
2016-11-18T02:13:20.435Z,0
2016-11-18T02:14:20.426Z,0
2016-11-18T02:15:20.414Z,0
2016-11-18T02:16:20.395Z,0
2016-11-18T02:17:20.375Z,0
2016-11-18T02:18:20.371Z,0
2016-11-18T02:19:20.345Z,0
2016-11-18T02:20:20.343Z,0
2016-11-18T02:21:20.311Z,0
2016-11-18T02:22:20.307Z,0
2016-11-18T02:23:20.271Z,0
2016-11-18T02:24:20.284Z,0
2016-11-18T02:25:20.273Z,0
2016-11-18T02:26:20.217Z,0
2016-11-18T02:27:20.222Z,0
2016-11-18T02:28:20.196Z,0
2016-11-18T02:29:20.185Z,0
2016-11-18T02:30:20.173Z,0
2016-11-18T02:31:20.133Z,0
2016-11-18T02:32:20.125Z,0
2016-11-18T02:33:20.116Z,0
2016-11-18T02:34:20.105Z,0
2016-11-18T02:35:20.079Z,0
2016-11-18T02:36:20.060Z,0
2016-11-18T02:37:20.054Z,0
2016-11-18T02:38:20.029Z,0
2016-11-18T02:39:20.003Z,0
2016-11-18T02:40:20.000Z,0
2016-11-18T02:41:20.001Z,0
2016-11-18T02:42:19.966Z,0
2016-11-18T02:43:19.991Z,0
2016-11-18T02:44:19.922Z,0
2016-11-18T02:45:19.901Z,0
2016-11-18T02:46:19.951Z,0
2016-11-18T02:47:19.879Z,0
2016-11-18T02:48:19.879Z,0
2016-11-18T02:49:19.848Z,0
2016-11-18T02:50:19.841Z,0
2016-11-18T02:51:19.804Z,0
2016-11-18T02:52:19.781Z,0
2016-11-18T02:53:19.753Z,0
2016-11-18T02:54:19.771Z,0
2016-11-18T02:55:19.741Z,0
2016-11-18T02:56:19.724Z,0
2016-11-18T02:57:19.706Z,0
2016-11-18T02:58:19.703Z,0
2016-11-18T02:59:19.663Z,0
2016-11-18T03:00:19.672Z,0
2016-11-18T03:01:19.932Z,0
2016-11-18T03:02:19.609Z,0
2016-11-18T03:03:19.618Z,0
2016-11-18T03:04:19.563Z,0
2016-11-18T03:05:19.549Z,0
2016-11-18T03:06:19.558Z,0
2016-11-18T03:07:19.559Z,0
2016-11-18T03:08:19.517Z,0
2016-11-18T03:09:19.478Z,0
2016-11-18T03:10:19.513Z,0
2016-11-18T03:11:19.494Z,0
2016-11-18T03:12:19.478Z,0
2016-11-18T03:13:19.426Z,0
2016-11-18T03:14:19.426Z,0
2016-11-18T03:15:19.404Z,0
2016-11-18T03:16:19.372Z,0
2016-11-18T03:17:19.343Z,0
2016-11-18T03:18:19.339Z,0
2016-11-18T03:19:19.335Z,0
2016-11-18T03:20:19.314Z,0
2016-11-18T03:21:19.278Z,0
2016-11-18T03:22:19.267Z,0
2016-11-18T03:23:19.259Z,0
2016-11-18T03:24:19.241Z,0
2016-11-18T03:25:19.219Z,0
2016-11-18T03:26:19.216Z,0
2016-11-18T03:27:19.187Z,0
2016-11-18T03:28:19.191Z,0
2016-11-18T03:29:19.144Z,0
2016-11-18T03:30:19.141Z,0
2016-11-18T03:31:19.105Z,0
2016-11-18T03:32:19.133Z,0
2016-11-18T03:33:19.069Z,0
2016-11-18T03:34:19.053Z,0
2016-11-18T03:35:19.057Z,0
2016-11-18T03:36:19.031Z,0
2016-11-18T03:37:19.005Z,0
2016-11-18T03:38:19.001Z,0
2016-11-18T03:39:18.968Z,0
2016-11-18T03:40:18.985Z,0
2016-11-18T03:41:18.928Z,0
2016-11-18T03:42:18.898Z,0
2016-11-18T03:43:18.945Z,0
2016-11-18T03:44:18.872Z,0
2016-11-18T03:45:18.871Z,0
2016-11-18T03:46:18.855Z,0
2016-11-18T03:47:18.819Z,0
2016-11-18T03:48:18.804Z,0
2016-11-18T03:49:18.815Z,0
2016-11-18T03:50:18.767Z,0
2016-11-18T03:51:18.785Z,0
2016-11-18T03:52:18.795Z,0
2016-11-18T03:53:19.353Z,0
2016-11-18T03:54:18.683Z,0
2016-11-18T03:55:18.701Z,0
2016-11-18T03:56:18.677Z,0
2016-11-18T03:57:18.670Z,0
2016-11-18T03:58:18.658Z,0
2016-11-18T03:59:18.616Z,0
2016-11-18T04:00:18.591Z,0
2016-11-18T04:01:18.551Z,0
2016-11-18T04:02:18.563Z,0
2016-11-18T04:03:18.555Z,0
2016-11-18T04:04:18.509Z,0
2016-11-18T04:05:18.500Z,0
2016-11-18T04:06:18.459Z,0
2016-11-18T04:07:18.467Z,0
2016-11-18T04:08:18.446Z,0
2016-11-18T04:09:18.427Z,0
2016-11-18T04:10:18.436Z,0
2016-11-18T04:11:18.380Z,0
2016-11-18T04:12:18.352Z,0
2016-11-18T04:13:18.347Z,0
2016-11-18T04:14:18.334Z,0
2016-11-18T04:15:18.343Z,0
2016-11-18T04:16:18.306Z,0
2016-11-18T04:17:18.288Z,0
2016-11-18T04:18:18.245Z,0
2016-11-18T04:19:18.248Z,0
2016-11-18T04:20:18.217Z,0
2016-11-18T04:21:18.186Z,0
2016-11-18T04:22:18.215Z,0
2016-11-18T04:23:18.176Z,0
2016-11-18T04:24:18.152Z,0
2016-11-18T04:25:18.144Z,0
2016-11-18T04:26:18.120Z,0
2016-11-18T04:27:18.104Z,0
2016-11-18T04:28:18.121Z,0
2016-11-18T04:29:18.077Z,0
2016-11-18T04:30:18.058Z,0
2016-11-18T04:31:18.023Z,0
2016-11-18T04:32:18.016Z,0
2016-11-18T04:33:18.001Z,0
2016-11-18T04:34:17.954Z,0
2016-11-18T04:35:17.955Z,0
2016-11-18T04:36:17.939Z,0
2016-11-18T04:37:17.927Z,0
2016-11-18T04:38:17.903Z,0
2016-11-18T04:39:17.899Z,0
2016-11-18T04:40:17.884Z,0
2016-11-18T04:41:17.862Z,0
2016-11-18T04:42:17.813Z,0
2016-11-18T04:43:17.800Z,0
2016-11-18T04:44:17.783Z,0
2016-11-18T04:45:17.780Z,0
2016-11-18T04:46:17.742Z,0
2016-11-18T04:47:17.726Z,0
2016-11-18T04:48:17.713Z,0
2016-11-18T04:49:17.720Z,0
2016-11-18T04:50:17.682Z,0
2016-11-18T04:51:17.667Z,0
2016-11-18T04:52:17.645Z,0
2016-11-18T04:53:17.603Z,0
2016-11-18T04:54:17.622Z,0
2016-11-18T04:55:17.580Z,0
2016-11-18T04:56:17.557Z,0
2016-11-18T04:57:17.545Z,0
2016-11-18T04:58:17.521Z,0
2016-11-18T04:59:17.545Z,0
2016-11-18T05:00:17.523Z,0
2016-11-18T05:01:17.477Z,0
2016-11-18T05:02:17.459Z,0
2016-11-18T05:03:17.459Z,0
2016-11-18T05:04:17.443Z,0
2016-11-18T05:05:17.421Z,0
2016-11-18T05:06:17.375Z,0
2016-11-18T05:07:17.395Z,0
2016-11-18T05:08:17.368Z,0
2016-11-18T05:09:17.347Z,0
2016-11-18T05:10:17.318Z,0
2016-11-18T05:11:17.304Z,0
2016-11-18T05:12:17.271Z,0
2016-11-18T05:13:17.265Z,0
2016-11-18T05:14:17.233Z,0
2016-11-18T05:15:17.219Z,0
2016-11-18T05:16:17.255Z,0
2016-11-18T05:17:17.533Z,0
2016-11-18T05:18:17.174Z,0
2016-11-18T05:19:17.159Z,0
2016-11-18T05:20:17.137Z,0
2016-11-18T05:21:17.138Z,0
2016-11-18T05:22:17.100Z,0
2016-11-18T05:23:17.082Z,0
2016-11-18T05:24:17.087Z,0
2016-11-18T05:25:17.062Z,0
2016-11-18T05:26:17.048Z,0
2016-11-18T05:27:17.017Z,0
2016-11-18T05:28:17.010Z,0
2016-11-18T05:29:16.974Z,0
2016-11-18T05:30:16.980Z,0
2016-11-18T05:31:16.934Z,0
2016-11-18T05:32:16.917Z,0
2016-11-18T05:33:16.894Z,0
2016-11-18T05:34:16.887Z,0
2016-11-18T05:35:16.870Z,0
2016-11-18T05:36:16.864Z,0
2016-11-18T05:37:16.849Z,0
2016-11-18T05:38:16.810Z,0
2016-11-18T05:39:16.847Z,0
2016-11-18T05:40:16.791Z,0
2016-11-18T05:41:16.751Z,0
2016-11-18T05:42:16.738Z,0
2016-11-18T05:43:16.738Z,0
2016-11-18T05:44:17.012Z,0
2016-11-18T05:45:16.691Z,0
2016-11-18T05:46:16.682Z,0
2016-11-18T05:47:16.667Z,0
2016-11-18T05:48:16.665Z,4
2016-11-18T05:49:16.933Z,4
2016-11-18T05:50:16.621Z,0
2016-11-18T05:51:16.599Z,0
2016-11-18T05:52:16.573Z,4
2016-11-18T05:53:16.545Z,0
2016-11-18T05:54:16.546Z,4
2016-11-18T05:55:16.503Z,4
2016-11-18T05:56:16.484Z,8
2016-11-18T05:57:16.498Z,8
2016-11-18T05:58:16.477Z,8
2016-11-18T06:00:20.626Z,8
2016-11-18T06:01:07.609Z,12
2016-11-18T06:02:01.295Z,16
2016-11-18T06:03:01.275Z,16
2016-11-18T06:04:01.275Z,24
2016-11-18T06:05:01.245Z,24
2016-11-18T06:06:01.229Z,28
2016-11-18T06:07:01.210Z,36
2016-11-18T06:08:01.222Z,44
2016-11-18T06:09:01.207Z,52
2016-11-18T06:10:01.151Z,60
2016-11-18T06:11:01.135Z,68
2016-11-18T06:12:01.117Z,76
2016-11-18T06:13:01.103Z,88
2016-11-18T06:14:01.082Z,100
2016-11-18T06:15:01.062Z,116
2016-11-18T06:16:01.084Z,136
2016-11-18T06:17:01.030Z,156
2016-11-18T06:18:01.037Z,176
2016-11-18T06:19:01.038Z,196
2016-11-18T06:20:01.017Z,220
2016-11-18T06:21:01.010Z,244
2016-11-18T06:22:00.985Z,268
2016-11-18T06:23:00.984Z,288
2016-11-18T06:24:00.974Z,320
2016-11-18T06:25:00.918Z,348
2016-11-18T06:26:00.887Z,376
2016-11-18T06:27:00.879Z,408
2016-11-18T06:28:00.851Z,444
2016-11-18T06:29:00.854Z,480
2016-11-18T06:30:00.822Z,520
2016-11-18T06:31:00.850Z,608
2016-11-18T06:32:00.823Z,792
2016-11-18T06:33:00.779Z,984
2016-11-18T06:34:00.734Z,1096
2016-11-18T06:35:00.743Z,1292
2016-11-18T06:36:00.720Z,1180
2016-11-18T06:37:00.766Z,1440
2016-11-18T06:38:00.716Z,1080
2016-11-18T06:39:00.693Z,1648
2016-11-18T06:40:00.669Z,1756
2016-11-18T06:41:00.632Z,2020
2016-11-18T06:42:00.620Z,2152
2016-11-18T06:43:00.597Z,2116
2016-11-18T06:44:00.566Z,1636
2016-11-18T06:45:00.587Z,1700
2016-11-18T06:46:00.562Z,1784
2016-11-18T06:47:00.530Z,2036
2016-11-18T06:48:00.852Z,2744
2016-11-18T06:49:00.478Z,3368
2016-11-18T06:50:00.792Z,3716
2016-11-18T06:51:00.467Z,3872
2016-11-18T06:52:00.441Z,4040
2016-11-18T06:53:00.428Z,4196
2016-11-18T06:54:00.417Z,4368
2016-11-18T06:55:00.385Z,4544
2016-11-18T06:56:00.389Z,4720
2016-11-18T06:57:00.339Z,4924
2016-11-18T06:58:00.334Z,5060
2016-11-18T06:59:00.318Z,5240
2016-11-18T07:00:00.290Z,5424
2016-11-18T07:01:00.272Z,5604
2016-11-18T07:02:00.291Z,5740
2016-11-18T07:03:00.241Z,4660
2016-11-18T07:04:00.226Z,6048
2016-11-18T07:05:00.263Z,6144
2016-11-18T07:06:00.215Z,6448
2016-11-18T07:07:00.211Z,6160
2016-11-18T07:08:00.172Z,3532
2016-11-18T07:09:00.147Z,6952
2016-11-18T07:10:00.141Z,7112
2016-11-18T07:11:00.094Z,7172
2016-11-18T07:12:00.088Z,3288
2016-11-18T07:13:00.078Z,7340
2016-11-18T07:14:00.060Z,7724
2016-11-18T07:15:00.064Z,7800
2016-11-18T07:16:00.031Z,7924
2016-11-18T07:17:00.004Z,3880
2016-11-18T07:18:00.020Z,3228
2016-11-18T07:18:59.986Z,7380
2016-11-18T07:19:59.965Z,8320
2016-11-18T07:20:59.944Z,8528
2016-11-18T07:21:59.952Z,8768
2016-11-18T07:22:59.911Z,8908
2016-11-18T07:23:59.903Z,9156
2016-11-18T07:24:59.897Z,9244
2016-11-18T07:25:59.857Z,9440
2016-11-18T07:26:59.855Z,4904
2016-11-18T07:27:59.862Z,4792
2016-11-18T07:28:59.810Z,4056
2016-11-18T07:29:59.792Z,4408
2016-11-18T07:30:59.763Z,10564
2016-11-18T07:31:59.780Z,10704
2016-11-18T07:32:59.738Z,10644
2016-11-18T07:33:59.733Z,10784
2016-11-18T07:34:59.710Z,10900
2016-11-18T07:35:59.708Z,11128
2016-11-18T07:36:59.679Z,11348
2016-11-18T07:37:59.680Z,11372
2016-11-18T07:38:59.665Z,10808
2016-11-18T07:39:59.670Z,11568
2016-11-18T07:40:59.638Z,11836
2016-11-18T07:41:59.618Z,11880
2016-11-18T07:42:59.591Z,12064
2016-11-18T07:43:59.580Z,12264
2016-11-18T07:44:59.529Z,12672
2016-11-18T07:45:59.568Z,12668
2016-11-18T07:46:59.553Z,12664
2016-11-18T07:47:59.498Z,12384
2016-11-18T07:48:59.489Z,13036
2016-11-18T07:49:59.469Z,13272
2016-11-18T07:50:59.487Z,13132
2016-11-18T07:51:59.481Z,12680
2016-11-18T07:52:59.420Z,6576
2016-11-18T07:53:59.387Z,9592
2016-11-18T07:54:59.373Z,14004
2016-11-18T07:55:59.355Z,14524
2016-11-18T07:56:59.354Z,14892
2016-11-18T07:57:59.339Z,10960
2016-11-18T07:58:59.322Z,12688
2016-11-18T07:59:59.305Z,15412
2016-11-18T08:00:59.293Z,9396
2016-11-18T08:01:59.292Z,8636
2016-11-18T08:02:59.248Z,15064
2016-11-18T08:03:59.272Z,15816
2016-11-18T08:04:59.249Z,15148
2016-11-18T08:05:59.216Z,7244
2016-11-18T08:06:59.195Z,16144
2016-11-18T08:07:59.218Z,15348
2016-11-18T08:08:59.167Z,16068
2016-11-18T08:09:59.159Z,14832
2016-11-18T08:10:59.148Z,9016
2016-11-18T08:11:59.173Z,16044
2016-11-18T08:12:59.104Z,12624
2016-11-18T08:13:59.101Z,17696
2016-11-18T08:14:59.079Z,17600
2016-11-18T08:15:59.066Z,17792
2016-11-18T08:16:59.046Z,11904
2016-11-18T08:17:59.040Z,11732
2016-11-18T08:18:59.018Z,17248
2016-11-18T08:19:58.993Z,7432
2016-11-18T08:20:59.001Z,13924
2016-11-18T08:21:58.978Z,14892
2016-11-18T08:22:58.936Z,9732
2016-11-18T08:23:58.967Z,7520
2016-11-18T08:24:58.921Z,7860
2016-11-18T08:25:58.909Z,10824
2016-11-18T08:26:58.898Z,7804
2016-11-18T08:27:58.892Z,7588
2016-11-18T08:28:58.860Z,8440
2016-11-18T08:29:58.858Z,9464
2016-11-18T08:30:58.819Z,9680
2016-11-18T08:31:58.808Z,8012
2016-11-18T08:32:58.778Z,8272
2016-11-18T08:33:58.783Z,9348
2016-11-18T08:34:58.754Z,9480
2016-11-18T08:35:58.795Z,8708
2016-11-18T08:36:58.728Z,8984
2016-11-18T08:37:58.699Z,8384
2016-11-18T08:38:58.702Z,9120
2016-11-18T08:39:58.677Z,9100
2016-11-18T08:40:58.656Z,8880
2016-11-18T08:41:58.658Z,9704
2016-11-18T08:42:58.623Z,9512
2016-11-18T08:43:58.596Z,9672
2016-11-18T08:44:58.579Z,13860
2016-11-18T08:45:58.572Z,11380
2016-11-18T08:46:58.550Z,12356
2016-11-18T08:47:58.525Z,17312
2016-11-18T08:48:58.523Z,10744
2016-11-18T08:49:58.517Z,10532
2016-11-18T08:50:58.501Z,9440
2016-11-18T08:51:58.472Z,11124
2016-11-18T08:52:58.437Z,12600
2016-11-18T08:53:58.426Z,10624
2016-11-18T08:54:58.426Z,11492
2016-11-18T08:55:58.407Z,20480
2016-11-18T08:56:58.394Z,11740
2016-11-18T08:57:58.370Z,11956
2016-11-18T08:58:58.356Z,9692
2016-11-18T08:59:58.341Z,11600
2016-11-18T09:00:58.291Z,24832
2016-11-18T09:01:58.286Z,10408
2016-11-18T09:02:58.273Z,9872
2016-11-18T09:03:58.334Z,9188
2016-11-18T09:04:58.245Z,10096
2016-11-18T09:05:58.218Z,25376
2016-11-18T09:06:58.194Z,10140
2016-11-18T09:07:58.170Z,10404
2016-11-18T09:08:58.184Z,10140
2016-11-18T09:09:58.157Z,18720
2016-11-18T09:10:58.157Z,11460
2016-11-18T09:11:58.145Z,19680
2016-11-18T09:12:58.107Z,25088
2016-11-18T09:13:58.114Z,12728
2016-11-18T09:14:58.087Z,12048
2016-11-18T09:15:58.039Z,9560
2016-11-18T09:16:58.063Z,14388
2016-11-18T09:17:58.004Z,11576
2016-11-18T09:18:58.026Z,13920
2016-11-18T09:19:58.008Z,7668
2016-11-18T09:20:57.955Z,6688
2016-11-18T09:21:57.970Z,7168
2016-11-18T09:22:57.929Z,9308
2016-11-18T09:23:57.916Z,11064
2016-11-18T09:24:57.880Z,8076
2016-11-18T09:25:57.882Z,15584
2016-11-18T09:26:57.857Z,10020
2016-11-18T09:27:57.848Z,15948
2016-11-18T09:28:57.842Z,7536
2016-11-18T09:29:57.822Z,6336
2016-11-18T09:30:57.784Z,10748
2016-11-18T09:31:57.783Z,17536
2016-11-18T09:32:57.739Z,14856
2016-11-18T09:33:57.743Z,7888
2016-11-18T09:34:57.727Z,11196
2016-11-18T09:35:57.706Z,11700
2016-11-18T09:36:57.706Z,12120
2016-11-18T09:37:57.691Z,7680
2016-11-18T09:38:57.655Z,7244
2016-11-18T09:39:57.634Z,14764
2016-11-18T09:40:57.650Z,8832
2016-11-18T09:41:57.628Z,18912
2016-11-18T09:42:57.591Z,24640
2016-11-18T09:43:57.553Z,21184
2016-11-18T09:44:57.541Z,22784
2016-11-18T09:45:57.521Z,22816
2016-11-18T09:46:57.527Z,24032
2016-11-18T09:47:57.859Z,12584
2016-11-18T09:48:57.489Z,19680
2016-11-18T09:49:57.474Z,13964
2016-11-18T09:50:57.467Z,16236
2016-11-18T09:51:57.442Z,30528
2016-11-18T09:52:57.425Z,20544
2016-11-18T09:53:57.418Z,22656
2016-11-18T09:54:57.414Z,23904
2016-11-18T09:55:57.378Z,16940
2016-11-18T09:56:57.349Z,15684
2016-11-18T09:57:57.357Z,17792
2016-11-18T09:58:57.318Z,28640
2016-11-18T09:59:57.294Z,32416
2016-11-18T10:00:57.284Z,25088
2016-11-18T10:01:57.296Z,17312
2016-11-18T10:02:57.245Z,16004
2016-11-18T10:03:57.224Z,15308
2016-11-18T10:04:57.216Z,18144
2016-11-18T10:05:57.232Z,14052
2016-11-18T10:06:57.185Z,18208
2016-11-18T10:07:57.187Z,14076
2016-11-18T10:08:57.185Z,14064
2016-11-18T10:09:57.148Z,14364
2016-11-18T10:10:57.139Z,14364
2016-11-18T10:11:57.116Z,14344
2016-11-18T10:12:57.096Z,13956
2016-11-18T10:13:57.089Z,14368
2016-11-18T10:14:57.055Z,13972
2016-11-18T10:15:57.022Z,14036
2016-11-18T10:16:57.031Z,13940
2016-11-18T10:17:57.001Z,14148
2016-11-18T10:18:56.988Z,13732
2016-11-18T10:19:56.965Z,13668
2016-11-18T10:20:56.969Z,14680
2016-11-18T10:21:56.958Z,14304
2016-11-18T10:22:56.929Z,14020
2016-11-18T10:23:56.922Z,14112
2016-11-18T10:24:56.893Z,15756
2016-11-18T10:25:56.862Z,15416
2016-11-18T10:26:57.153Z,14028
2016-11-18T10:27:56.852Z,14940
2016-11-18T10:28:56.802Z,14352
2016-11-18T10:29:56.820Z,13952
2016-11-18T10:30:56.782Z,15236
2016-11-18T10:31:56.783Z,18368
2016-11-18T10:32:56.738Z,19456
2016-11-18T10:33:56.750Z,15124
2016-11-18T10:34:56.715Z,15360
2016-11-18T10:35:56.729Z,17504
2016-11-18T10:36:56.708Z,19136
2016-11-18T10:37:56.650Z,22528
2016-11-18T10:38:56.662Z,17312
2016-11-18T10:39:56.639Z,16504
2016-11-18T10:40:56.634Z,20640
2016-11-18T10:41:56.616Z,24736
2016-11-18T10:42:56.583Z,32000
2016-11-18T10:43:56.576Z,24224
2016-11-18T10:44:56.545Z,22880
2016-11-18T10:45:56.550Z,19264
2016-11-18T10:46:56.544Z,24448
2016-11-18T10:47:56.504Z,25888
2016-11-18T10:48:56.474Z,22656
2016-11-18T10:49:56.481Z,23552
2016-11-18T10:50:56.459Z,25120
2016-11-18T10:51:56.468Z,27232
2016-11-18T10:52:56.425Z,27712
2016-11-18T10:53:56.421Z,27136
2016-11-18T10:54:56.390Z,25376
2016-11-18T10:55:56.374Z,22016
2016-11-18T10:56:56.751Z,18272
2016-11-18T10:57:56.359Z,16672
2016-11-18T10:58:56.321Z,17664
2016-11-18T10:59:56.311Z,16720
2016-11-18T11:00:56.297Z,16400
2016-11-18T11:01:56.268Z,15728
2016-11-18T11:02:56.241Z,16524
2016-11-18T11:03:56.269Z,16076
2016-11-18T11:04:56.224Z,15116
2016-11-18T11:05:56.220Z,14012
2016-11-18T11:06:56.206Z,13664
2016-11-18T11:07:56.195Z,13312
2016-11-18T11:08:56.157Z,13332
2016-11-18T11:09:56.139Z,13912
2016-11-18T11:10:56.143Z,13676
2016-11-18T11:11:56.146Z,15436
2016-11-18T11:12:56.090Z,13896
2016-11-18T11:13:56.068Z,13944
2016-11-18T11:14:56.056Z,13736
2016-11-18T11:15:56.056Z,14476
2016-11-18T11:16:56.062Z,14044
2016-11-18T11:17:56.044Z,13036
2016-11-18T11:18:55.991Z,12860
2016-11-18T11:19:56.000Z,12280
2016-11-18T11:20:55.974Z,11984
2016-11-18T11:21:55.964Z,11632
2016-11-18T11:22:55.958Z,11120
2016-11-18T11:23:55.931Z,10760
2016-11-18T11:24:55.921Z,10304
2016-11-18T11:25:55.917Z,10056
2016-11-18T11:26:55.876Z,9816
2016-11-18T11:27:55.864Z,9688
2016-11-18T11:28:55.819Z,9896
2016-11-18T11:29:55.817Z,10596
2016-11-18T11:30:55.795Z,10992
2016-11-18T11:31:55.792Z,11164
2016-11-18T11:32:55.788Z,11252
2016-11-18T11:33:55.771Z,11524
2016-11-18T11:34:55.730Z,10696
2016-11-18T11:35:55.782Z,10608
2016-11-18T11:36:55.703Z,10692
2016-11-18T11:37:55.697Z,10484
2016-11-18T11:38:55.693Z,10552
2016-11-18T11:39:55.659Z,10860
2016-11-18T11:40:55.650Z,10620
2016-11-18T11:41:55.621Z,10248
2016-11-18T11:42:55.606Z,10496
2016-11-18T11:43:55.593Z,11232
2016-11-18T11:44:55.730Z,11996
2016-11-18T11:45:55.565Z,11580
2016-11-18T11:46:55.523Z,11232
2016-11-18T11:47:55.529Z,10928
2016-11-18T11:48:55.502Z,10452
2016-11-18T11:49:55.506Z,10500
2016-11-18T11:50:55.458Z,10424
2016-11-18T11:51:55.445Z,9980
2016-11-18T11:52:55.465Z,9460
2016-11-18T11:53:55.442Z,8888
2016-11-18T11:54:55.394Z,8576
2016-11-18T11:55:55.400Z,8484
2016-11-18T11:56:55.384Z,8552
2016-11-18T11:57:55.362Z,8736
2016-11-18T11:58:55.347Z,9168
2016-11-18T11:59:55.315Z,9512
2016-11-18T12:00:55.316Z,9736
2016-11-18T12:01:55.311Z,9992
2016-11-18T12:02:55.292Z,10700
2016-11-18T12:03:55.328Z,10648
2016-11-18T12:04:55.252Z,11112
2016-11-18T12:05:55.233Z,11560
2016-11-18T12:06:55.227Z,12044
2016-11-18T12:07:55.222Z,13196
2016-11-18T12:08:55.199Z,14204
2016-11-18T12:09:55.177Z,15304
2016-11-18T12:10:55.164Z,18912
2016-11-18T12:11:55.124Z,16236
2016-11-18T12:12:55.104Z,15500
2016-11-18T12:13:55.131Z,15520
2016-11-18T12:14:55.068Z,15876
2016-11-18T12:15:55.096Z,15224
2016-11-18T12:16:55.067Z,14540
2016-11-18T12:17:55.045Z,13556
2016-11-18T12:18:55.035Z,13924
2016-11-18T12:19:55.012Z,16244
2016-11-18T12:20:55.001Z,18368
2016-11-18T12:21:54.977Z,15480
2016-11-18T12:22:54.956Z,15164
2016-11-18T12:23:54.939Z,15764
2016-11-18T12:24:54.954Z,14092
2016-11-18T12:25:54.939Z,13680
2016-11-18T12:26:54.929Z,13396
2016-11-18T12:27:54.875Z,15512
2016-11-18T12:28:54.873Z,13144
2016-11-18T12:29:54.834Z,11244
2016-11-18T12:30:54.828Z,10596
2016-11-18T12:31:54.835Z,10156
2016-11-18T12:32:54.813Z,9712
2016-11-18T12:33:54.774Z,9636
2016-11-18T12:34:54.778Z,10248
2016-11-18T12:35:54.762Z,11728
2016-11-18T12:36:54.732Z,12520
2016-11-18T12:37:54.733Z,12452
2016-11-18T12:38:54.703Z,12120
2016-11-18T12:39:54.689Z,11804
2016-11-18T12:40:54.687Z,11136
2016-11-18T12:41:54.639Z,10496
2016-11-18T12:42:54.667Z,10436
2016-11-18T12:43:54.614Z,10524
2016-11-18T12:44:54.607Z,10884
2016-11-18T12:45:54.593Z,10652
2016-11-18T12:46:54.576Z,10324
2016-11-18T12:47:54.568Z,9840
2016-11-18T12:48:54.529Z,9316
2016-11-18T12:49:54.525Z,9092
2016-11-18T12:50:54.504Z,8940
2016-11-18T12:51:54.498Z,10212
2016-11-18T12:52:54.474Z,10436
2016-11-18T12:53:54.746Z,11400
2016-11-18T12:54:54.441Z,12444
2016-11-18T12:55:54.415Z,16376
2016-11-18T12:56:54.399Z,19584
2016-11-18T12:57:54.362Z,19488
2016-11-18T12:58:54.370Z,15324
2016-11-18T12:59:54.365Z,15036
2016-11-18T13:00:54.341Z,18688
2016-11-18T13:01:54.314Z,14660
2016-11-18T13:02:54.288Z,12940
2016-11-18T13:03:54.302Z,10996
2016-11-18T13:04:54.263Z,10664
2016-11-18T13:05:54.254Z,10876
2016-11-18T13:06:54.252Z,11084
2016-11-18T13:07:54.417Z,11552
2016-11-18T13:08:54.206Z,12148
2016-11-18T13:09:54.205Z,11536
2016-11-18T13:10:54.191Z,10972
2016-11-18T13:11:54.154Z,10140
2016-11-18T13:12:54.148Z,9960
2016-11-18T13:13:54.107Z,9856
2016-11-18T13:14:54.143Z,10488
2016-11-18T13:15:54.112Z,9928
2016-11-18T13:16:54.076Z,9076
2016-11-18T13:17:54.069Z,8520
2016-11-18T13:18:54.055Z,8508
2016-11-18T13:19:54.031Z,8764
2016-11-18T13:20:54.021Z,9036
2016-11-18T13:21:54.006Z,9476
2016-11-18T13:22:53.982Z,10732
2016-11-18T13:23:54.011Z,11400
2016-11-18T13:24:53.931Z,12632
2016-11-18T13:25:53.951Z,12148
2016-11-18T13:26:53.936Z,12968
2016-11-18T13:27:53.916Z,14216
2016-11-18T13:28:53.867Z,15432
2016-11-18T13:29:53.884Z,15032
2016-11-18T13:30:53.874Z,13272
2016-11-18T13:31:53.835Z,11480
2016-11-18T13:32:53.855Z,10196
2016-11-18T13:33:53.862Z,9916
2016-11-18T13:34:53.818Z,9020
2016-11-18T13:35:53.760Z,9248
2016-11-18T13:36:53.775Z,8632
2016-11-18T13:37:53.779Z,10592
2016-11-18T13:38:53.712Z,13932
2016-11-18T13:39:53.745Z,12820
2016-11-18T13:40:53.685Z,11340
2016-11-18T13:41:53.687Z,13740
2016-11-18T13:42:53.697Z,13144
2016-11-18T13:43:53.647Z,7824
2016-11-18T13:44:53.647Z,9352
2016-11-18T13:45:53.616Z,9348
2016-11-18T13:46:53.600Z,9632